Time;durP1;ratioP1;P1;durP2;ratioP2;P2;SDS_P1;SDS_P2;PMS_P1;PMS_P2;Temp;Humidity;BMP_temperature;BMP_pressure;BME280_temperature;BME280_humidity;BME280_pressure;Samples;Min_cycle;Max_cycle;Signal;HPM_P1;HPM_P2
2022/10/28 00:01:34;;;;;;;14.88;4.20;;;16.50;99.90;;;;;;5092689;28;20487;-77
2022/10/28 00:04:03;;;;;;;9.05;4.00;;;16.50;99.90;;;;;;5084982;28;20072;-78
2022/10/28 00:06:34;;;;;;;15.18;4.18;;;16.50;99.90;;;;;;5077065;28;20515;-77
2022/10/28 00:09:00;;;;;;;13.60;4.57;;;16.50;99.90;;;;;;5078188;28;20092;-77
2022/10/28 00:11:29;;;;;;;14.73;3.60;;;16.50;99.90;;;;;;5077162;28;20454;-77
2022/10/28 00:13:56;;;;;;;18.25;5.13;;;16.50;99.90;;;;;;5078291;28;20047;-77
2022/10/28 00:16:28;;;;;;;14.20;4.45;;;16.40;99.90;;;;;;5077590;28;20460;-77
2022/10/28 00:18:54;;;;;;;17.02;4.53;;;16.40;99.90;;;;;;5095993;28;21047;-77
2022/10/28 00:21:23;;;;;;;13.15;4.28;;;16.30;99.90;;;;;;5092578;28;20043;-77
2022/10/28 00:23:49;;;;;;;14.32;3.60;;;16.20;99.90;;;;;;5076874;28;20071;-77
2022/10/28 00:26:19;;;;;;;18.90;4.75;;;16.30;99.90;;;;;;5082925;28;20082;-77
2022/10/28 00:28:48;;;;;;;11.60;4.07;;;16.30;99.90;;;;;;5096755;28;20050;-77
2022/10/28 00:31:16;;;;;;;10.93;4.10;;;16.30;99.90;;;;;;5095690;28;20036;-77
2022/10/28 00:33:43;;;;;;;13.00;4.53;;;16.30;99.90;;;;;;5063691;28;20040;-78
2022/10/28 00:36:17;;;;;;;11.52;4.00;;;16.20;99.90;;;;;;5096958;28;20048;-77
2022/10/28 00:38:44;;;;;;;14.68;5.57;;;16.20;99.90;;;;;;5087110;28;20458;-77
2022/10/28 00:41:12;;;;;;;18.85;4.38;;;16.20;99.90;;;;;;5080044;28;20040;-77
2022/10/28 00:43:50;;;;;;;17.27;4.30;;;16.20;99.90;;;;;;5089415;28;20052;-77
2022/10/28 00:46:28;;;;;;;11.05;4.15;;;;;;;;;;5077456;28;20032;-77
2022/10/28 00:49:11;;;;;;;13.50;4.75;;;16.20;99.90;;;;;;5093973;28;20513;-77
2022/10/28 00:51:38;;;;;;;12.25;4.18;;;16.20;99.90;;;;;;5096524;28;20055;-77
2022/10/28 00:54:05;;;;;;;9.32;3.80;;;16.30;99.90;;;;;;5082934;28;20157;-77
2022/10/28 00:56:35;;;;;;;10.70;4.15;;;16.20;99.90;;;;;;5087042;28;20048;-77
2022/10/28 00:59:06;;;;;;;16.45;4.63;;;16.20;99.90;;;;;;5094707;28;20100;-77
2022/10/28 01:01:32;;;;;;;10.32;4.40;;;16.20;99.90;;;;;;5076058;28;20388;-77
2022/10/28 01:03:59;;;;;;;9.95;4.32;;;16.10;99.90;;;;;;5086709;28;20061;-77
2022/10/28 01:06:26;;;;;;;8.88;4.28;;;16.10;99.90;;;;;;5078647;28;20040;-77
2022/10/28 01:08:52;;;;;;;10.48;4.15;;;16.10;99.90;;;;;;5076193;28;20036;-77
2022/10/28 01:11:44;;;;;;;12.15;4.63;;;16.10;99.90;;;;;;5074664;28;20518;-77
2022/10/28 01:14:34;;;;;;;11.85;4.32;;;16.10;99.90;;;;;;5080701;28;20040;-77
2022/10/28 01:17:18;;;;;;;13.80;4.77;;;16.10;99.90;;;;;;5094733;28;20028;-78
2022/10/28 01:19:53;;;;;;;9.45;3.78;;;16.10;99.90;;;;;;5096257;28;20122;-77
2022/10/28 01:22:37;;;;;;;17.73;4.70;;;16.10;99.90;;;;;;5087064;28;20040;-78
2022/10/28 01:25:03;;;;;;;10.27;4.38;;;16.10;99.90;;;;;;5075566;28;20064;-78
2022/10/28 01:27:59;;;;;;;9.90;3.85;;;16.10;99.90;;;;;;5088659;28;20062;-78
2022/10/28 01:30:39;;;;;;;7.70;3.92;;;16.20;99.90;;;;;;5096202;28;20495;-78
2022/10/28 01:33:26;;;;;;;8.30;3.83;;;16.20;99.90;;;;;;5095358;28;20050;-78
2022/10/28 01:35:59;;;;;;;14.10;4.55;;;16.30;99.90;;;;;;5062459;28;20597;-77
2022/10/28 01:38:39;;;;;;;14.15;4.57;;;16.50;99.90;;;;;;5077837;28;20087;-77
2022/10/28 01:41:47;;;;;;;13.43;4.13;;;16.50;99.90;;;;;;5074439;28;20040;-77
2022/10/28 01:44:28;;;;;;;12.32;4.38;;;16.40;99.90;;;;;;5094653;28;20048;-77
2022/10/28 01:47:04;;;;;;;9.77;4.90;;;16.30;99.90;;;;;;5092675;28;20036;-77
2022/10/28 01:49:38;;;;;;;12.88;4.20;;;16.30;99.90;;;;;;5075454;28;20104;-77
2022/10/28 01:52:09;;;;;;;11.57;4.43;;;16.20;99.90;;;;;;5082914;28;20068;-77
2022/10/28 01:54:37;;;;;;;11.63;4.50;;;16.30;99.90;;;;;;5095573;28;20074;-77
2022/10/28 01:57:04;;;;;;;13.32;4.15;;;16.30;99.90;;;;;;5094991;28;20036;-77
2022/10/28 01:59:32;;;;;;;9.10;4.10;;;16.30;99.90;;;;;;5088632;28;20093;-77
2022/10/28 02:01:58;;;;;;;13.73;4.50;;;16.30;99.90;;;;;;5073872;28;20037;-77
2022/10/28 02:04:24;;;;;;;9.82;3.75;;;16.30;99.90;;;;;;5074927;28;20400;-78
2022/10/28 02:06:54;;;;;;;11.95;3.90;;;16.30;99.90;;;;;;5093475;28;20130;-77
2022/10/28 02:09:35;;;;;;;8.38;4.30;;;16.30;99.90;;;;;;5095448;28;20054;-77
2022/10/28 02:12:14;;;;;;;16.40;3.97;;;16.30;99.90;;;;;;5094865;28;20061;-77
2022/10/28 02:14:55;;;;;;;14.18;4.40;;;16.20;99.90;;;;;;5085757;28;20048;-77
2022/10/28 02:17:49;;;;;;;16.63;4.88;;;16.20;99.90;;;;;;5073587;28;20091;-78
2022/10/28 02:20:35;;;;;;;15.25;3.92;;;16.10;99.90;;;;;;5073209;28;20537;-77
2022/10/28 02:23:10;;;;;;;7.05;3.65;;;16.20;99.90;;;;;;5082912;28;20040;-77
2022/10/28 02:26:05;;;;;;;9.93;3.95;;;16.20;99.90;;;;;;5083411;28;20036;-78
2022/10/28 02:28:58;;;;;;;15.55;4.43;;;16.30;99.90;;;;;;5092834;28;20553;-77
2022/10/28 02:31:32;;;;;;;15.38;3.90;;;16.20;99.90;;;;;;5094528;28;20040;-77
2022/10/28 02:34:05;;;;;;;10.35;3.38;;;16.20;99.90;;;;;;5094813;28;20044;-77
2022/10/28 02:36:36;;;;;;;12.18;4.35;;;16.20;99.90;;;;;;5083709;28;20515;-77
2022/10/28 02:39:04;;;;;;;10.48;3.95;;;16.20;99.90;;;;;;5074210;28;20097;-78
2022/10/28 02:41:52;;;;;;;10.07;4.00;;;16.10;99.90;;;;;;5076772;28;20055;-78
2022/10/28 02:44:25;;;;;;;16.80;4.10;;;16.20;99.90;;;;;;5087022;28;20403;-78
2022/10/28 02:46:54;;;;;;;8.43;3.80;;;16.20;99.90;;;;;;5079788;28;20573;-78
2022/10/28 02:49:22;;;;;;;7.55;4.35;;;16.20;99.90;;;;;;5083735;28;20384;-78
2022/10/28 02:51:57;;;;;;;11.98;4.32;;;16.20;99.90;;;;;;5074828;28;20051;-77
2022/10/28 02:54:29;;;;;;;12.18;4.10;;;16.20;99.90;;;;;;5094503;28;20036;-78
2022/10/28 02:57:16;;;;;;;11.98;4.43;;;16.20;99.90;;;;;;5092846;28;20030;-77
2022/10/28 02:59:42;;;;;;;10.77;3.67;;;16.20;99.90;;;;;;5092876;28;20041;-77
2022/10/28 03:02:09;;;;;;;17.85;4.25;;;16.20;99.90;;;;;;5093861;28;20103;-78
2022/10/28 03:04:34;;;;;;;12.07;4.22;;;16.20;99.90;;;;;;5093196;28;20515;-77
2022/10/28 03:07:00;;;;;;;8.07;4.03;;;16.10;99.90;;;;;;5083233;28;20119;-77
2022/10/28 03:09:26;;;;;;;10.40;3.90;;;16.10;99.90;;;;;;5074059;28;20048;-78
2022/10/28 03:11:51;;;;;;;9.02;3.80;;;16.10;99.90;;;;;;5073954;28;20530;-77
2022/10/28 03:14:17;;;;;;;13.77;4.38;;;16.10;99.90;;;;;;5073622;28;20040;-77
2022/10/28 03:16:43;;;;;;;16.45;4.30;;;16.10;99.90;;;;;;5073840;28;20045;-77
2022/10/28 03:19:09;;;;;;;12.27;3.83;;;16.00;99.90;;;;;;5073837;28;20504;-77
2022/10/28 03:21:34;;;;;;;9.07;3.97;;;16.00;99.90;;;;;;5074083;28;20044;-77
2022/10/28 03:24:00;;;;;;;13.60;3.78;;;16.10;99.90;;;;;;5073965;28;20066;-77
2022/10/28 03:26:26;;;;;;;7.53;3.35;;;16.10;99.90;;;;;;5072542;28;20040;-78
2022/10/28 03:28:51;;;;;;;11.75;3.83;;;16.10;99.90;;;;;;5073812;28;20055;-77
2022/10/28 03:31:17;;;;;;;11.40;3.53;;;16.20;99.90;;;;;;5081110;28;20093;-77
2022/10/28 03:33:43;;;;;;;6.18;2.95;;;16.10;99.90;;;;;;5079017;28;20032;-77
2022/10/28 03:36:08;;;;;;;12.98;4.07;;;16.20;99.90;;;;;;5081477;28;20059;-77
2022/10/28 03:38:35;;;;;;;14.02;3.50;;;16.20;99.90;;;;;;5074470;28;20060;-77
2022/10/28 03:41:01;;;;;;;8.15;3.20;;;16.10;99.90;;;;;;5075212;28;20119;-77
2022/10/28 03:43:27;;;;;;;11.50;3.88;;;16.10;99.90;;;;;;5072123;28;20036;-76
2022/10/28 03:45:52;;;;;;;9.93;3.75;;;16.00;99.90;;;;;;5091720;28;20067;-77
2022/10/28 03:48:18;;;;;;;7.75;2.88;;;16.00;99.90;;;;;;5093899;28;20455;-76
2022/10/28 03:50:44;;;;;;;9.38;3.85;;;15.90;99.90;;;;;;5090033;28;20042;-75
2022/10/28 03:53:10;;;;;;;15.00;5.03;;;15.90;99.90;;;;;;5052291;28;20029;-77
2022/10/28 03:55:35;;;;;;;9.90;3.92;;;16.00;99.90;;;;;;5082725;28;20112;-76
2022/10/28 03:58:01;;;;;;;11.75;3.53;;;16.00;99.90;;;;;;5075592;28;20106;-77
2022/10/28 04:00:28;;;;;;;7.25;3.38;;;16.10;99.90;;;;;;5093864;28;20534;-77
2022/10/28 04:02:53;;;;;;;9.70;3.30;;;16.00;99.90;;;;;;5092398;28;20546;-77
2022/10/28 04:05:19;;;;;;;11.38;3.63;;;16.00;99.90;;;;;;5093766;28;20032;-76
2022/10/28 04:07:46;;;;;;;11.25;4.05;;;16.00;99.90;;;;;;5093713;28;20496;-76
2022/10/28 04:10:13;;;;;;;18.02;4.80;;;16.10;99.90;;;;;;5093854;28;20048;-77
2022/10/28 04:12:39;;;;;;;8.27;3.40;;;16.10;99.90;;;;;;5093697;28;20150;-77
2022/10/28 04:15:05;;;;;;;13.20;4.25;;;16.10;99.90;;;;;;5093594;28;20563;-78
2022/10/28 04:17:33;;;;;;;9.57;4.55;;;16.10;99.90;;;;;;5093453;28;20043;-76
2022/10/28 04:19:59;;;;;;;14.88;4.22;;;16.00;99.90;;;;;;5093582;28;20048;-78
2022/10/28 04:22:25;;;;;;;15.48;4.57;;;16.20;99.90;;;;;;5093530;28;20131;-77
2022/10/28 04:24:53;;;;;;;7.95;3.50;;;16.10;99.90;;;;;;5093607;28;20119;-78
2022/10/28 04:27:19;;;;;;;7.80;3.88;;;16.00;99.90;;;;;;5093408;28;20035;-76
2022/10/28 04:29:45;;;;;;;10.63;4.32;;;16.00;99.90;;;;;;5094908;28;20036;-77
2022/10/28 04:32:10;;;;;;;13.10;3.90;;;16.00;99.90;;;;;;5095918;28;20062;-78
2022/10/28 04:34:36;;;;;;;8.02;4.00;;;15.90;99.90;;;;;;5087236;28;20102;-77
2022/10/28 04:37:02;;;;;;;10.75;4.40;;;15.90;99.90;;;;;;5076853;28;20438;-77
2022/10/28 04:39:28;;;;;;;10.00;3.75;;;15.90;99.90;;;;;;5076919;28;20044;-77
2022/10/28 04:41:53;;;;;;;7.82;4.07;;;16.10;99.90;;;;;;5076701;28;20029;-77
2022/10/28 04:44:19;;;;;;;9.02;3.92;;;16.10;99.90;;;;;;5076641;28;20040;-77
2022/10/28 04:46:45;;;;;;;17.27;4.38;;;16.20;99.90;;;;;;5076500;28;20041;-76
2022/10/28 04:49:11;;;;;;;18.98;3.15;;;16.20;99.90;;;;;;5076715;28;20392;-77
2022/10/28 04:51:36;;;;;;;8.13;3.90;;;16.30;99.90;;;;;;5076770;28;20577;-76
2022/10/28 04:54:02;;;;;;;9.88;3.50;;;16.30;99.90;;;;;;5076758;28;20036;-77
2022/10/28 04:56:29;;;;;;;10.93;2.97;;;16.30;99.90;;;;;;5075278;28;20496;-77
2022/10/28 04:58:55;;;;;;;10.07;3.08;;;16.30;99.90;;;;;;5076546;28;20493;-77
2022/10/28 05:01:21;;;;;;;12.38;4.75;;;16.10;99.90;;;;;;5076458;28;20039;-77
2022/10/28 05:03:47;;;;;;;7.35;3.70;;;16.10;99.90;;;;;;5076403;28;20530;-77
2022/10/28 05:06:12;;;;;;;6.88;3.05;;;16.20;99.90;;;;;;5076514;28;20094;-77
2022/10/28 05:08:38;;;;;;;11.40;3.85;;;16.20;99.90;;;;;;5076377;28;20060;-77
2022/10/28 05:11:04;;;;;;;4.47;3.10;;;16.20;99.90;;;;;;5076390;28;20036;-77
2022/10/28 05:13:30;;;;;;;10.30;3.75;;;16.20;99.90;;;;;;5074960;28;20032;-77
2022/10/28 05:15:55;;;;;;;9.15;3.53;;;16.30;99.90;;;;;;5075660;28;20044;-77
2022/10/28 05:18:21;;;;;;;7.47;3.10;;;16.20;99.90;;;;;;5075967;28;20040;-77
2022/10/28 05:20:51;;;;;;;9.07;3.65;;;16.20;99.90;;;;;;5076165;28;20103;-77
2022/10/28 05:23:17;;;;;;;7.28;3.53;;;16.20;99.90;;;;;;5076133;28;20044;-77
2022/10/28 05:25:43;;;;;;;8.35;3.53;;;16.20;99.90;;;;;;5076064;28;20094;-77
2022/10/28 05:28:08;;;;;;;10.82;3.40;;;16.20;99.90;;;;;;5075926;28;20452;-77
2022/10/28 05:30:35;;;;;;;10.55;3.40;;;16.20;99.90;;;;;;5076135;28;20080;-77
2022/10/28 05:33:01;;;;;;;9.80;3.60;;;16.10;99.90;;;;;;5076039;28;20061;-77
2022/10/28 05:35:28;;;;;;;9.52;3.25;;;;;;;;;;5075844;28;20040;-77
2022/10/28 05:37:54;;;;;;;14.18;3.88;;;;;;;;;;5075700;28;20056;-77
2022/10/28 05:40:20;;;;;;;8.30;3.13;;;15.60;99.90;;;;;;5074350;28;20070;-77
2022/10/28 05:42:45;;;;;;;14.85;4.00;;;15.80;99.90;;;;;;5074547;28;20112;-77
2022/10/28 05:45:12;;;;;;;12.25;3.83;;;16.10;99.90;;;;;;5074491;28;20040;-77
2022/10/28 05:47:45;;;;;;;14.02;3.97;;;16.20;99.90;;;;;;5075728;28;20070;-77
2022/10/28 05:50:11;;;;;;;13.75;4.13;;;16.10;99.90;;;;;;5074037;28;20033;-77
2022/10/28 05:52:37;;;;;;;8.13;3.30;;;15.90;99.90;;;;;;5075130;28;20060;-77
2022/10/28 05:55:04;;;;;;;10.02;3.35;;;15.80;99.90;;;;;;5075376;28;20040;-77
2022/10/28 05:57:33;;;;;;;10.35;3.65;;;15.80;99.90;;;;;;5075041;28;20107;-77
2022/10/28 05:59:59;;;;;;;8.60;3.25;;;15.80;99.90;;;;;;5075719;28;20048;-77
2022/10/28 06:02:25;;;;;;;11.98;3.67;;;15.90;99.90;;;;;;5075521;28;20044;-77
2022/10/28 06:04:50;;;;;;;19.45;3.97;;;15.90;99.90;;;;;;5075342;28;20065;-77
2022/10/28 06:07:16;;;;;;;13.23;3.53;;;15.90;99.90;;;;;;5073936;28;20037;-77
2022/10/28 06:09:42;;;;;;;6.70;3.17;;;16.00;99.90;;;;;;5075130;28;20408;-77
2022/10/28 06:12:08;;;;;;;12.13;3.85;;;16.00;99.90;;;;;;5075058;28;20032;-77
2022/10/28 06:14:33;;;;;;;11.40;4.32;;;16.00;99.90;;;;;;5073912;28;20050;-77
2022/10/28 06:16:59;;;;;;;10.07;3.95;;;16.00;99.90;;;;;;5075176;28;20036;-77
2022/10/28 06:19:25;;;;;;;10.05;4.28;;;16.00;99.90;;;;;;5074861;28;20052;-77
2022/10/28 06:21:51;;;;;;;11.45;4.05;;;16.00;99.90;;;;;;5074677;28;20048;-77
2022/10/28 06:24:16;;;;;;;11.07;4.25;;;15.90;99.90;;;;;;5074736;28;20044;-77
2022/10/28 06:26:42;;;;;;;8.77;3.83;;;16.00;99.90;;;;;;5073122;28;20059;-77
2022/10/28 06:29:11;;;;;;;17.45;4.45;;;16.00;99.90;;;;;;5073181;28;20430;-77
2022/10/28 06:31:40;;;;;;;11.18;3.78;;;16.00;99.90;;;;;;5074754;28;20037;-77
2022/10/28 06:34:08;;;;;;;11.77;4.57;;;15.90;99.90;;;;;;5074604;28;20512;-77
2022/10/28 06:36:34;;;;;;;14.88;4.70;;;15.90;99.90;;;;;;5074234;28;20101;-77
2022/10/28 06:38:59;;;;;;;12.40;4.63;;;16.00;99.90;;;;;;5074297;28;20044;-77
2022/10/28 06:41:25;;;;;;;13.68;5.63;;;16.00;99.90;;;;;;5074412;28;20435;-77
2022/10/28 06:43:51;;;;;;;12.63;4.45;;;16.00;99.90;;;;;;5073136;28;20072;-77
2022/10/28 06:46:16;;;;;;;10.35;3.53;;;16.00;99.90;;;;;;5073216;28;20126;-77
2022/10/28 06:48:42;;;;;;;18.90;4.35;;;15.90;99.90;;;;;;5074462;28;20043;-77
2022/10/28 06:51:08;;;;;;;11.52;4.28;;;16.00;99.90;;;;;;5074237;28;20077;-77
2022/10/28 06:53:34;;;;;;;11.18;4.35;;;16.10;99.90;;;;;;5073897;28;20119;-77
2022/10/28 06:55:59;;;;;;;9.65;4.30;;;16.20;99.90;;;;;;5073108;28;20481;-77
2022/10/28 06:58:25;;;;;;;16.45;4.40;;;16.30;99.90;;;;;;5072990;28;20048;-77
2022/10/28 07:00:52;;;;;;;10.20;4.28;;;16.40;99.90;;;;;;5074021;28;20040;-77
2022/10/28 07:03:18;;;;;;;12.40;3.17;;;16.40;99.90;;;;;;5074171;28;20177;-77
2022/10/28 07:05:45;;;;;;;15.50;3.60;;;16.50;99.90;;;;;;5073004;28;20471;-77
2022/10/28 07:08:11;;;;;;;6.18;3.17;;;16.50;99.90;;;;;;5074212;28;20052;-77
2022/10/28 07:10:37;;;;;;;8.48;3.00;;;16.50;99.90;;;;;;5073973;28;20488;-77
2022/10/28 07:13:03;;;;;;;5.03;3.08;;;16.40;99.90;;;;;;5072358;28;20032;-77
2022/10/28 07:15:28;;;;;;;13.52;3.50;;;16.40;99.90;;;;;;5074060;28;20124;-77
2022/10/28 07:17:56;;;;;;;13.70;3.50;;;16.40;99.90;;;;;;5073766;28;20028;-77
2022/10/28 07:20:22;;;;;;;9.23;3.38;;;16.40;99.90;;;;;;5072488;28;20044;-77
2022/10/28 07:22:57;;;;;;;10.40;4.15;;;16.50;99.90;;;;;;5074082;28;20036;-77
2022/10/28 07:25:22;;;;;;;9.60;3.00;;;16.40;99.90;;;;;;5072749;28;20028;-77
2022/10/28 07:27:48;;;;;;;20.95;4.13;;;16.40;99.90;;;;;;5072789;28;20035;-77
2022/10/28 07:30:14;;;;;;;7.95;3.28;;;16.30;99.90;;;;;;5073821;28;20036;-77
2022/10/28 07:32:39;;;;;;;19.83;4.00;;;16.30;99.90;;;;;;5073759;28;20515;-77
2022/10/28 07:35:05;;;;;;;10.07;3.55;;;16.30;99.90;;;;;;5073839;28;20408;-77
2022/10/28 07:37:31;;;;;;;9.45;3.63;;;16.30;99.90;;;;;;5073819;28;20506;-77
2022/10/28 07:39:57;;;;;;;6.57;3.17;;;16.40;99.90;;;;;;5073868;28;20131;-77
2022/10/28 07:42:23;;;;;;;12.23;4.20;;;16.40;99.90;;;;;;5073868;28;20124;-77
2022/10/28 07:44:48;;;;;;;8.55;3.30;;;16.60;99.90;;;;;;5073665;28;20055;-77
2022/10/28 07:47:16;;;;;;;7.78;3.55;;;16.70;99.90;;;;;;5073400;28;20032;-79
2022/10/28 07:49:42;;;;;;;13.13;3.97;;;16.70;99.90;;;;;;5073730;28;20044;-79
2022/10/28 07:52:09;;;;;;;15.57;3.72;;;16.60;99.90;;;;;;5073796;28;20122;-79
2022/10/28 07:54:34;;;;;;;13.15;3.95;;;16.60;99.90;;;;;;5073216;28;20057;-77
2022/10/28 07:57:00;;;;;;;11.10;4.10;;;16.80;99.90;;;;;;5072311;28;20033;-77
2022/10/28 07:59:26;;;;;;;9.43;3.60;;;17.00;99.90;;;;;;5073599;28;20408;-77
2022/10/28 08:01:52;;;;;;;7.43;3.53;;;17.30;99.90;;;;;;5073392;28;20124;-77
2022/10/28 08:04:17;;;;;;;10.77;3.65;;;17.50;99.90;;;;;;5074403;28;20119;-77
2022/10/28 08:06:43;;;;;;;10.70;4.15;;;17.40;99.90;;;;;;5077713;28;20043;-77
2022/10/28 08:09:09;;;;;;;9.38;3.78;;;17.50;99.90;;;;;;5076316;28;20032;-77
2022/10/28 08:11:34;;;;;;;11.90;3.90;;;17.40;99.90;;;;;;5077412;28;20078;-77
2022/10/28 08:14:01;;;;;;;11.88;4.53;;;17.10;99.90;;;;;;5076064;28;20028;-77
2022/10/28 08:16:27;;;;;;;11.18;4.15;;;17.20;99.90;;;;;;5077327;28;20074;-77
2022/10/28 08:18:55;;;;;;;13.45;4.78;;;17.30;99.90;;;;;;5075906;28;20577;-77
2022/10/28 08:21:22;;;;;;;9.57;3.95;;;17.50;99.90;;;;;;5077361;28;20085;-77
2022/10/28 08:23:48;;;;;;;17.83;5.00;;;17.70;99.90;;;;;;5075995;28;20102;-78
2022/10/28 08:26:15;;;;;;;16.30;4.78;;;17.80;99.90;;;;;;5076713;28;20550;-77
2022/10/28 08:28:41;;;;;;;15.30;4.22;;;18.00;99.90;;;;;;5075873;28;20404;-78
2022/10/28 08:31:08;;;;;;;12.80;4.88;;;18.10;99.90;;;;;;5076850;28;20062;-78
2022/10/28 08:33:36;;;;;;;12.93;4.03;;;18.10;99.90;;;;;;5075583;28;20186;-78
2022/10/28 08:36:02;;;;;;;8.63;3.75;;;18.30;99.90;;;;;;5076822;28;20035;-76
2022/10/28 08:38:28;;;;;;;12.00;4.53;;;18.60;99.90;;;;;;5076538;28;20059;-77
2022/10/28 08:41:31;;;;;;;7.47;3.85;;;18.60;99.90;;;;;;5076777;28;20029;-77
2022/10/28 08:43:57;;;;;;;9.52;4.10;;;18.70;99.90;;;;;;5076764;28;20032;-78
2022/10/28 08:46:41;;;;;;;9.50;3.80;;;18.70;99.90;;;;;;5076781;28;20037;-77
2022/10/28 08:49:13;;;;;;;12.05;4.53;;;19.00;99.90;;;;;;5076733;28;20155;-78
2022/10/28 08:51:55;;;;;;;10.82;4.22;;;19.20;99.90;;;;;;5076612;28;20526;-78
2022/10/28 08:54:31;;;;;;;9.57;3.75;;;19.30;99.90;;;;;;5076435;28;20040;-78
2022/10/28 08:57:00;;;;;;;11.55;4.35;;;19.40;99.90;;;;;;5076238;28;20400;-78
2022/10/28 08:59:34;;;;;;;17.23;4.20;;;19.70;99.90;;;;;;5076482;28;20052;-77
2022/10/28 09:02:20;;;;;;;15.45;4.20;;;19.90;99.90;;;;;;5076655;28;20082;-77
2022/10/28 09:04:51;;;;;;;14.73;3.78;;;20.10;99.90;;;;;;5075163;28;20078;-77
2022/10/28 09:07:20;;;;;;;9.75;3.95;;;20.00;99.90;;;;;;5075161;28;20043;-77
2022/10/28 09:09:49;;;;;;;11.43;4.20;;;20.10;99.90;;;;;;5076505;28;20403;-80
2022/10/28 09:12:35;;;;;;;10.95;3.83;;;20.50;99.90;;;;;;5076324;28;20067;-77
2022/10/28 09:15:22;;;;;;;7.20;3.70;;;20.30;99.90;;;;;;5075796;28;20051;-77
2022/10/28 09:17:59;;;;;;;6.07;3.33;;;19.90;99.90;;;;;;5076093;28;20403;-78
2022/10/28 09:20:47;;;;;;;12.93;3.55;;;19.70;99.90;;;;;;5076382;28;20045;-76
2022/10/28 09:23:27;;;;;;;13.93;3.30;;;19.40;99.90;;;;;;5074640;28;20151;-76
2022/10/28 09:26:05;;;;;;;7.93;3.47;;;19.20;99.90;;;;;;5074891;28;20028;-75
2022/10/28 09:28:49;;;;;;;11.73;2.97;;;19.40;99.90;;;;;;5076170;28;20067;-76
2022/10/28 09:31:49;;;;;;;12.57;3.78;;;19.60;99.90;;;;;;5074622;28;20139;-77
2022/10/28 09:34:34;;;;;;;8.10;3.60;;;19.40;99.90;;;;;;5075899;28;20032;-76
2022/10/28 09:37:10;;;;;;;15.30;3.75;;;19.40;99.90;;;;;;5075870;28;20040;-77
2022/10/28 09:39:55;;;;;;;9.70;3.47;;;19.30;99.90;;;;;;5075804;28;20044;-76
2022/10/28 09:42:39;;;;;;;8.35;3.72;;;19.20;99.90;;;;;;5075677;28;20040;-77
2022/10/28 09:45:16;;;;;;;13.98;3.83;;;19.20;99.90;;;;;;5075707;28;20060;-75
2022/10/28 09:47:52;;;;;;;10.32;4.15;;;19.10;99.90;;;;;;5073391;28;20044;-77
2022/10/28 09:50:24;;;;;;;10.85;3.55;;;19.10;99.90;;;;;;5072888;28;20036;-78
2022/10/28 09:53:05;;;;;;;10.07;3.63;;;18.80;99.90;;;;;;5072295;28;20076;-76
2022/10/28 09:55:31;;;;;;;13.00;4.07;;;18.70;99.90;;;;;;5071603;28;20267;-79
2022/10/28 09:57:58;;;;;;;9.52;4.00;;;18.70;99.90;;;;;;5069360;28;20166;-79
2022/10/28 10:00:24;;;;;;;12.25;3.25;;;18.80;99.90;;;;;;5071472;28;20036;-77
2022/10/28 10:02:58;;;;;;;12.10;3.50;;;18.90;99.90;;;;;;5072438;28;20032;-75
2022/10/28 10:05:25;;;;;;;8.48;3.83;;;18.90;99.90;;;;;;5062986;28;20085;-75
2022/10/28 10:07:55;;;;;;;8.50;3.70;;;19.00;99.90;;;;;;5063298;28;20040;-79
2022/10/28 10:10:56;;;;;;;8.77;3.20;;;19.20;99.90;;;;;;5054377;28;20037;-76
2022/10/28 10:13:28;;;;;;;9.20;3.85;;;19.60;99.90;;;;;;5048885;28;20037;-78
2022/10/28 10:15:59;;;;;;;10.10;3.58;;;19.90;99.90;;;;;;5099599;28;20131;-75
2022/10/28 10:18:30;;;;;;;8.27;3.47;;;19.80;99.90;;;;;;5071292;28;20131;-78
2022/10/28 10:20:57;;;;;;;17.77;3.83;;;19.70;99.90;;;;;;5072111;28;20128;-77
2022/10/28 10:23:30;;;;;;;11.75;3.50;;;19.60;99.90;;;;;;5072720;28;20040;-76
2022/10/28 10:26:00;;;;;;;9.30;3.22;;;19.60;99.90;;;;;;5072884;28;20063;-77
2022/10/28 10:28:27;;;;;;;11.68;3.97;;;19.60;99.90;;;;;;5072246;28;20515;-77
2022/10/28 10:30:59;;;;;;;8.55;3.30;;;19.60;99.90;;;;;;5071208;28;20036;-76
2022/10/28 10:33:51;;;;;;;11.68;3.60;;;19.70;99.90;;;;;;5072580;28;20392;-77
2022/10/28 10:36:22;;;;;;;6.57;2.92;;;19.70;99.90;;;;;;5072636;28;20122;-77
2022/10/28 10:38:59;;;;;;;12.32;3.40;;;20.00;99.90;;;;;;5073292;28;20083;-77
2022/10/28 10:41:36;;;;;;;10.15;4.05;;;20.20;99.90;;;;;;5074169;28;20067;-78
2022/10/28 10:44:33;;;;;;;19.40;6.40;;;20.40;99.90;;;;;;5075724;28;20052;-77
2022/10/28 10:46:58;;;;;;;13.55;5.28;;;20.60;99.90;;;;;;5071580;28;20388;-75
2022/10/28 10:49:25;;;;;;;18.17;6.90;;;20.50;99.90;;;;;;5074192;28;20042;-77
2022/10/28 10:51:53;;;;;;;9.32;4.35;;;20.50;99.90;;;;;;5074525;28;20060;-76
2022/10/28 10:54:19;;;;;;;11.55;4.53;;;20.70;99.90;;;;;;5072957;28;20041;-75
2022/10/28 10:56:45;;;;;;;15.75;4.15;;;20.70;99.90;;;;;;5072885;28;20127;-76
2022/10/28 10:59:26;;;;;;;9.13;3.78;;;21.10;99.90;;;;;;5074168;28;20127;-78
2022/10/28 11:01:53;;;;;;;12.38;3.78;;;21.30;99.90;;;;;;5074371;28;20040;-78
2022/10/28 11:04:22;;;;;;;6.18;3.15;;;21.60;99.90;;;;;;5073331;28;20032;-75
2022/10/28 11:06:51;;;;;;;5.07;3.08;;;21.70;99.90;;;;;;5073956;28;20491;-76
2022/10/28 11:09:38;;;;;;;7.72;3.22;;;21.80;99.90;;;;;;5071508;28;20040;-76
2022/10/28 11:12:27;;;;;;;8.25;3.03;;;21.90;99.90;;;;;;5070648;28;20035;-77
2022/10/28 11:14:58;;;;;;;13.38;4.47;;;;;;;;;;5073067;28;20044;-77
2022/10/28 11:17:25;;;;;;;6.05;2.83;;;;;;;;;;5071988;28;20151;-77
2022/10/28 11:19:53;;;;;;;5.90;3.25;;;;;;;;;;5070479;28;20484;-79
2022/10/28 11:22:47;;;;;;;7.50;3.13;;;22.10;99.90;;;;;;5071413;28;20036;-78
2022/10/28 11:25:36;;;;;;;8.13;3.42;;;22.20;99.90;;;;;;5070314;28;20040;-77
2022/10/28 11:28:07;;;;;;;9.15;2.97;;;22.30;99.90;;;;;;5072749;28;20570;-78
2022/10/28 11:30:45;;;;;;;10.63;2.85;;;22.40;99.90;;;;;;5073409;28;20037;-78
2022/10/28 11:33:20;;;;;;;10.50;3.03;;;21.90;99.90;;;;;;5072064;28;20090;-78
2022/10/28 11:35:46;;;;;;;9.02;3.22;;;21.70;99.90;;;;;;5071715;28;20097;-78
2022/10/28 11:38:40;;;;;;;5.25;3.25;;;21.40;99.90;;;;;;5071380;28;20040;-77
2022/10/28 11:41:14;;;;;;;10.43;3.22;;;21.40;99.90;;;;;;5071500;28;20048;-78
2022/10/28 11:43:49;;;;;;;8.80;3.20;;;21.40;99.90;;;;;;5072003;28;20032;-77
2022/10/28 11:46:24;;;;;;;9.20;2.80;;;21.30;99.90;;;;;;5071565;28;20045;-77
2022/10/28 11:49:15;;;;;;;5.18;2.53;;;21.30;99.90;;;;;;5073476;28;20550;-78
2022/10/28 11:52:12;;;;;;;;;;;21.30;99.90;;;;;;5073743;28;20048;-77
2022/10/28 11:55:15;;;;;;;8.55;3.05;;;21.20;99.90;;;;;;5080960;28;20272;-78
2022/10/28 11:57:54;;;;;;;11.48;4.00;;;21.20;99.90;;;;;;5071791;28;20057;-77
2022/10/28 12:00:55;;;;;;;10.50;3.50;;;21.20;99.90;;;;;;5072176;28;20029;-77
2022/10/28 12:04:00;;;;;;;10.45;3.30;;;21.30;99.90;;;;;;5071481;28;20032;-77
2022/10/28 12:06:41;;;;;;;9.50;3.80;;;21.20;99.90;;;;;;5069765;28;20449;-78
2022/10/28 12:09:09;;;;;;;14.45;3.47;;;21.30;99.90;;;;;;5071237;28;20044;-79
2022/10/28 12:11:55;;;;;;;7.20;3.25;;;21.30;99.90;;;;;;5070302;28;20121;-79
2022/10/28 12:14:30;;;;;;;8.88;3.10;;;21.30;99.90;;;;;;5070878;28;20036;-79
2022/10/28 12:17:15;;;;;;;8.13;3.38;;;21.20;99.90;;;;;;5070814;28;20036;-80
2022/10/28 12:19:43;;;;;;;10.65;3.00;;;21.30;99.90;;;;;;5072138;28;20139;-79
2022/10/28 12:22:22;;;;;;;11.52;3.35;;;21.40;99.90;;;;;;5071204;28;20051;-79
2022/10/28 12:24:50;;;;;;;5.38;2.90;;;21.40;99.90;;;;;;5067983;28;20036;-79
2022/10/28 12:27:35;;;;;;;10.02;3.97;;;21.40;99.90;;;;;;5072906;28;20036;-78
2022/10/28 12:30:20;;;;;;;11.23;3.47;;;21.40;99.90;;;;;;5071626;28;20419;-80
2022/10/28 12:32:56;;;;;;;9.00;3.67;;;21.40;99.90;;;;;;5069383;28;20040;-78
2022/10/28 12:35:31;;;;;;;9.43;3.45;;;21.40;99.90;;;;;;5070729;28;20036;-77
2022/10/28 12:38:08;;;;;;;10.35;3.97;;;21.30;99.90;;;;;;5070541;28;20399;-77
2022/10/28 12:41:10;;;;;;;7.32;3.50;;;21.30;99.90;;;;;;5070540;28;20075;-76
2022/10/28 12:44:08;;;;;;;10.93;3.78;;;21.30;99.90;;;;;;5068619;28;20043;-77
2022/10/28 12:46:40;;;;;;;8.55;3.28;;;21.40;99.90;;;;;;5066007;28;20040;-77
2022/10/28 12:49:32;;;;;;;7.82;3.70;;;21.50;99.90;;;;;;5071889;28;20045;-77
2022/10/28 12:52:08;;;;;;;12.55;3.78;;;21.60;99.90;;;;;;5068838;28;20060;-77
2022/10/28 12:54:53;;;;;;;8.48;3.08;;;21.60;99.90;;;;;;5076664;28;20069;-76
2022/10/28 12:57:21;;;;;;;11.73;3.78;;;21.60;99.90;;;;;;5076729;28;20395;-77
2022/10/28 12:59:52;;;;;;;19.27;4.00;;;21.70;99.90;;;;;;5076475;28;20086;-77
2022/10/28 13:02:57;;;;;;;7.32;3.35;;;21.60;99.90;;;;;;5075316;28;20043;-77
2022/10/28 13:05:28;;;;;;;8.68;3.75;;;21.60;99.90;;;;;;5055595;28;20037;-78
2022/10/28 13:08:01;;;;;;;;;;;21.60;99.90;;;;;;5076884;28;20525;-77